Time;durP1;ratioP1;P1;durP2;ratioP2;P2;SDS_P1;SDS_P2;PMS_P1;PMS_P2;Temp;Humidity;BMP_temperature;BMP_pressure;BME280_temperature;BME280_humidity;BME280_pressure;Samples;Min_cycle;Max_cycle;Signal;HPM_P1;HPM_P2
2024/01/14 00:01:58;;;;;;;;;;;3.50;99.90;;;;;;7341428;19;112124;-90
2024/01/14 00:04:25;;;;;;;;;;;3.50;99.90;;;;;;7344369;19;113473;-90
2024/01/14 00:06:52;;;;;;;;;;;3.50;99.90;;;;;;7340248;19;108739;-90
2024/01/14 00:09:19;;;;;;;;;;;3.50;99.90;;;;;;7341628;19;111057;-91
2024/01/14 00:11:47;;;;;;;;;;;3.50;99.90;;;;;;7337562;19;108542;-91
2024/01/14 00:14:14;;;;;;;;;;;3.50;99.90;;;;;;7341514;19;109087;-91
2024/01/14 00:16:41;;;;;;;;;;;3.50;99.90;;;;;;7339934;19;110281;-90
2024/01/14 00:19:09;;;;;;;;;;;3.50;99.90;;;;;;7340755;19;108652;-91
2024/01/14 00:21:37;;;;;;;;;;;3.50;99.90;;;;;;7339974;19;108962;-91
2024/01/14 00:24:04;;;;;;;;;;;3.50;99.90;;;;;;7339113;19;110678;-91
2024/01/14 00:26:32;;;;;;;;;;;3.50;99.90;;;;;;7344316;19;110541;-91
2024/01/14 00:28:59;;;;;;;;;;;3.50;99.90;;;;;;7340500;19;109007;-91
2024/01/14 00:31:26;;;;;;;;;;;3.50;99.90;;;;;;7337947;19;109040;-90
2024/01/14 00:33:53;;;;;;;;;;;3.50;99.90;;;;;;7339320;19;109234;-90
2024/01/14 00:36:21;;;;;;;;;;;3.50;99.90;;;;;;7339359;19;110147;-91
2024/01/14 00:38:48;;;;;;;;;;;3.50;99.90;;;;;;7338846;19;108425;-91
2024/01/14 00:41:15;;;;;;;;;;;3.60;99.90;;;;;;7339465;19;108675;-90
2024/01/14 00:43:43;;;;;;;;;;;3.50;99.90;;;;;;7338871;19;112301;-90
2024/01/14 00:46:11;;;;;;;;;;;3.60;99.90;;;;;;7336605;19;110494;-90
2024/01/14 00:48:38;;;;;;;;;;;3.60;99.90;;;;;;7344653;19;112197;-91
2024/01/14 00:51:06;;;;;;;;;;;3.60;99.90;;;;;;7338320;19;108870;-90
2024/01/14 00:53:33;;;;;;;;;;;3.60;99.90;;;;;;7336966;19;110002;-91
2024/01/14 00:56:00;;;;;;;;;;;3.60;99.90;;;;;;7335179;19;112474;-90
2024/01/14 00:58:27;;;;;;;;;;;3.50;99.90;;;;;;7337462;19;108686;-91
2024/01/14 01:00:57;;;;;;;;;;;3.50;99.90;;;;;;7339027;19;112215;-90
2024/01/14 01:03:24;;;;;;;;;;;3.50;99.90;;;;;;7335796;19;109966;-91
2024/01/14 01:05:54;;;;;;;;;;;3.50;99.90;;;;;;7335688;19;109865;-90
2024/01/14 01:08:22;;;;;;;;;;;3.50;99.90;;;;;;7343468;19;109274;-91
2024/01/14 01:10:52;;;;;;;;;;;3.50;99.90;;;;;;7338375;19;108894;-91
2024/01/14 01:13:22;;;;;;;;;;;3.50;99.90;;;;;;7337067;19;108870;-90
2024/01/14 01:15:49;;;;;;;;;;;3.50;99.90;;;;;;7335078;19;112051;-91
2024/01/14 01:18:16;;;;;;;;;;;3.50;99.90;;;;;;7335472;19;108834;-90
2024/01/14 01:20:48;;;;;;;;;;;3.50;99.90;;;;;;7338037;19;109597;-90
2024/01/14 01:23:15;;;;;;;;;;;3.50;99.90;;;;;;7338742;19;109999;-91
2024/01/14 01:25:42;;;;;;;;;;;3.50;99.90;;;;;;7335635;19;108493;-90
2024/01/14 01:28:10;;;;;;;;;;;3.50;99.90;;;;;;7339836;19;110651;-90
2024/01/14 01:30:37;;;;;;;;;;;3.50;99.90;;;;;;7343910;19;109641;-91
2024/01/14 01:33:04;;;;;;;;;;;3.50;99.90;;;;;;7340807;19;109879;-91
2024/01/14 01:35:32;;;;;;;;;;;3.50;99.90;;;;;;7337476;19;112705;-90
2024/01/14 01:37:59;;;;;;;;;;;3.50;99.90;;;;;;7341891;19;108879;-91
2024/01/14 01:40:26;;;;;;;;;;;3.50;99.90;;;;;;7335640;19;111118;-89
2024/01/14 01:42:55;;;;;;;;;;;3.50;99.90;;;;;;7337057;19;110579;-90
2024/01/14 01:45:22;;;;;;;;;;;3.50;99.90;;;;;;7339738;19;108527;-91
2024/01/14 01:47:49;;;;;;;;;;;3.40;99.90;;;;;;7338304;19;109218;-91
2024/01/14 01:50:17;;;;;;;;;;;3.50;99.90;;;;;;7338548;19;111436;-91
2024/01/14 01:52:44;;;;;;;;;;;3.40;99.90;;;;;;7344830;19;108486;-90
2024/01/14 01:55:12;;;;;;;;;;;3.40;99.90;;;;;;7356580;19;110543;-90
2024/01/14 01:57:39;;;;;;;;;;;3.40;99.90;;;;;;7377495;19;107985;-90
2024/01/14 02:00:16;;;;;;;;;;;3.40;99.90;;;;;;7372731;19;108778;-90
2024/01/14 02:02:43;;;;;;;;;;;3.40;99.90;;;;;;7370286;19;111505;-90
2024/01/14 02:05:10;;;;;;;;;;;3.40;99.90;;;;;;7370956;19;109017;-91
2024/01/14 02:07:38;;;;;;;;;;;3.40;99.90;;;;;;7374081;19;111281;-90
2024/01/14 02:10:05;;;;;;;;;;;3.40;99.90;;;;;;7352936;19;109143;-91
2024/01/14 02:12:32;;;;;;;;;;;3.40;99.90;;;;;;7342122;19;108742;-91
2024/01/14 02:15:00;;;;;;;;;;;3.40;99.90;;;;;;7340325;19;110660;-91
2024/01/14 02:17:27;;;;;;;;;;;3.40;99.90;;;;;;7338399;19;108969;-91
2024/01/14 02:19:54;;;;;;;;;;;3.40;99.90;;;;;;7336940;19;110139;-90
2024/01/14 02:22:28;;;;;;;;;;;3.40;99.90;;;;;;7335660;19;111269;-91
2024/01/14 02:24:55;;;;;;;;;;;3.40;99.90;;;;;;7335499;19;109626;-90
2024/01/14 02:27:23;;;;;;;;;;;3.40;99.90;;;;;;7338359;19;110962;-89
2024/01/14 02:29:51;;;;;;;;;;;3.40;99.90;;;;;;7334767;19;110210;-90
2024/01/14 02:32:18;;;;;;;;;;;3.40;99.90;;;;;;7337462;19;109191;-90
2024/01/14 02:34:45;;;;;;;;;;;3.40;99.90;;;;;;7337452;19;112875;-90
2024/01/14 02:37:12;;;;;;;;;;;3.40;99.90;;;;;;7340606;19;109509;-91
2024/01/14 02:39:40;;;;;;;;;;;3.40;99.90;;;;;;7337557;19;109320;-90
2024/01/14 02:42:07;;;;;;;;;;;3.40;99.90;;;;;;7336101;19;110688;-92
2024/01/14 02:44:34;;;;;;;;;;;3.40;99.90;;;;;;7334642;19;109920;-91
2024/01/14 02:47:04;;;;;;;;;;;3.40;99.90;;;;;;7335055;19;108805;-92
2024/01/14 02:49:31;;;;;;;;;;;3.40;99.90;;;;;;7334589;19;110362;-91
2024/01/14 02:51:58;;;;;;;;;;;3.40;99.90;;;;;;7335681;19;108918;-90
2024/01/14 02:54:25;;;;;;;;;;;3.40;99.90;;;;;;7335259;19;109722;-91
2024/01/14 02:56:53;;;;;;;;;;;3.40;99.90;;;;;;7330884;19;109831;-91
2024/01/14 02:59:22;;;;;;;;;;;3.40;99.90;;;;;;7339160;19;108492;-91
2024/01/14 03:01:49;;;;;;;;;;;3.40;99.90;;;;;;7332115;19;110397;-90
2024/01/14 03:04:16;;;;;;;;;;;3.40;99.90;;;;;;7333405;19;108718;-90
2024/01/14 03:06:44;;;;;;;;;;;3.40;99.90;;;;;;7335810;19;108542;-90
2024/01/14 03:09:11;;;;;;;;;;;3.40;99.90;;;;;;7332898;19;110204;-90
2024/01/14 03:11:38;;;;;;;;;;;3.30;99.90;;;;;;7337055;19;108666;-90
2024/01/14 03:14:05;;;;;;;;;;;3.40;99.90;;;;;;7335115;19;110937;-90
2024/01/14 03:16:32;;;;;;;;;;;3.40;99.90;;;;;;7332616;19;111594;-90
2024/01/14 03:18:59;;;;;;;;;;;3.30;99.90;;;;;;7335150;19;109284;-90
2024/01/14 03:21:27;;;;;;;;;;;3.40;99.90;;;;;;7333640;19;110415;-90
2024/01/14 03:23:54;;;;;;;;;;;3.30;99.90;;;;;;7330944;19;108772;-90
2024/01/14 03:26:21;;;;;;;;;;;3.40;99.90;;;;;;7334836;19;109842;-90
2024/01/14 03:28:48;;;;;;;;;;;3.40;99.90;;;;;;7330092;19;110142;-91
2024/01/14 03:31:16;;;;;;;;;;;3.30;99.90;;;;;;7331691;19;108977;-90
2024/01/14 03:33:43;;;;;;;;;;;3.40;99.90;;;;;;7331786;19;109181;-91
2024/01/14 03:36:14;;;;;;;;;;;3.30;99.90;;;;;;7333855;19;110073;-91
2024/01/14 03:38:42;;;;;;;;;;;3.30;99.90;;;;;;7333736;19;108550;-90
2024/01/14 03:41:09;;;;;;;;;;;3.30;99.90;;;;;;7335606;19;109128;-91
2024/01/14 03:43:39;;;;;;;;;;;3.30;99.90;;;;;;7332156;19;109599;-90
2024/01/14 03:46:06;;;;;;;;;;;3.30;99.90;;;;;;7331063;19;109094;-90
2024/01/14 03:48:33;;;;;;;;;;;3.30;99.90;;;;;;7330232;19;112110;-91
2024/01/14 03:51:00;;;;;;;;;;;3.30;99.90;;;;;;7331303;19;108939;-90
2024/01/14 03:53:28;;;;;;;;;;;3.30;99.90;;;;;;7332845;19;108463;-90
2024/01/14 03:55:55;;;;;;;;;;;3.30;99.90;;;;;;7331970;19;112098;-90
2024/01/14 03:58:22;;;;;;;;;;;3.30;99.90;;;;;;7332549;19;108631;-90
2024/01/14 04:00:49;;;;;;;;;;;3.30;99.90;;;;;;7334787;19;108784;-90
2024/01/14 04:03:16;;;;;;;;;;;3.30;99.90;;;;;;7340605;19;109979;-91
2024/01/14 04:05:44;;;;;;;;;;;3.30;99.90;;;;;;7333620;19;108790;-89
2024/01/14 04:08:11;;;;;;;;;;;3.30;99.90;;;;;;7330360;19;110701;-91
2024/01/14 04:10:38;;;;;;;;;;;3.30;99.90;;;;;;7335907;19;108375;-91
2024/01/14 04:13:05;;;;;;;;;;;3.30;99.90;;;;;;7330179;19;112568;-91
2024/01/14 04:15:32;;;;;;;;;;;3.30;99.90;;;;;;7331197;19;113388;-90
2024/01/14 04:17:59;;;;;;;;;;;3.30;99.90;;;;;;7329814;19;108916;-91
2024/01/14 04:20:26;;;;;;;;;;;3.30;99.90;;;;;;7334322;19;109180;-90
2024/01/14 04:22:54;;;;;;;;;;;3.30;99.90;;;;;;7330309;19;108693;-91
2024/01/14 04:25:21;;;;;;;;;;;3.30;99.90;;;;;;7337370;19;108977;-90
2024/01/14 04:27:48;;;;;;;;;;;3.20;99.90;;;;;;7330188;19;110330;-90
2024/01/14 04:30:15;;;;;;;;;;;3.30;99.90;;;;;;7330151;19;108778;-90
2024/01/14 04:32:43;;;;;;;;;;;3.30;99.90;;;;;;7338273;19;108676;-91
2024/01/14 04:35:14;;;;;;;;;;;3.30;99.90;;;;;;7338893;19;113074;-91
2024/01/14 04:37:41;;;;;;;;;;;3.30;99.90;;;;;;7339357;19;108819;-91
2024/01/14 04:40:08;;;;;;;;;;;3.30;99.90;;;;;;7336955;19;109941;-91
2024/01/14 04:42:35;;;;;;;;;;;3.30;99.90;;;;;;7336875;19;112848;-90
2024/01/14 04:45:02;;;;;;;;;;;3.30;99.90;;;;;;7339786;19;108561;-90
2024/01/14 04:47:30;;;;;;;;;;;3.30;99.90;;;;;;7342263;19;109662;-90
2024/01/14 04:49:57;;;;;;;;;;;3.30;99.90;;;;;;7342072;19;108515;-91
2024/01/14 04:52:24;;;;;;;;;;;3.20;99.90;;;;;;7339056;19;111193;-90
2024/01/14 04:54:52;;;;;;;;;;;3.20;99.90;;;;;;7338843;19;109105;-90
2024/01/14 04:57:19;;;;;;;;;;;3.20;99.90;;;;;;7338139;19;110539;-90
2024/01/14 04:59:46;;;;;;;;;;;3.20;99.90;;;;;;7339625;19;109289;-90
2024/01/14 05:02:13;;;;;;;;;;;3.20;99.90;;;;;;7338469;19;110319;-90
2024/01/14 05:04:40;;;;;;;;;;;3.20;99.90;;;;;;7338311;19;110183;-89
2024/01/14 05:07:07;;;;;;;;;;;3.20;99.90;;;;;;7340039;19;111789;-90
2024/01/14 05:09:34;;;;;;;;;;;3.20;99.90;;;;;;7345359;19;109403;-90
2024/01/14 05:12:01;;;;;;;;;;;3.10;99.90;;;;;;7341591;19;110563;-90
2024/01/14 05:14:28;;;;;;;;;;;3.20;99.90;;;;;;7336632;19;111781;-90
2024/01/14 05:16:56;;;;;;;;;;;3.20;99.90;;;;;;7337190;19;108847;-89
2024/01/14 05:19:24;;;;;;;;;;;3.10;99.90;;;;;;7339175;19;110553;-91
2024/01/14 05:21:52;;;;;;;;;;;3.10;99.90;;;;;;7333951;19;113984;-91
2024/01/14 05:24:19;;;;;;;;;;;3.20;99.90;;;;;;7340713;19;109021;-90
2024/01/14 05:26:47;;;;;;;;;;;3.20;99.90;;;;;;7359143;19;108994;-91
2024/01/14 05:29:14;;;;;;;;;;;3.20;99.90;;;;;;7380183;19;111490;-91
2024/01/14 05:31:41;;;;;;;;;;;3.10;99.90;;;;;;7375211;19;108535;-91
2024/01/14 05:34:09;;;;;;;;;;;3.10;99.90;;;;;;7374915;19;109145;-90
2024/01/14 05:36:36;;;;;;;;;;;3.10;99.90;;;;;;7372070;19;108316;-91
2024/01/14 05:39:04;;;;;;;;;;;3.10;99.90;;;;;;7372191;19;108635;-90
2024/01/14 05:41:31;;;;;;;;;;;3.10;99.90;;;;;;7349446;19;111607;-90
2024/01/14 05:43:59;;;;;;;;;;;3.10;99.90;;;;;;7339074;19;108976;-91
2024/01/14 05:46:35;;;;;;;;;;;3.10;99.90;;;;;;7337772;19;111228;-91
2024/01/14 05:49:02;;;;;;;;;;;3.10;99.90;;;;;;7336157;19;112866;-91
2024/01/14 05:51:30;;;;;;;;;;;3.10;99.90;;;;;;7340682;19;109177;-91
2024/01/14 05:53:57;;;;;;;;;;;3.10;99.90;;;;;;7332323;19;113252;-91
2024/01/14 05:56:26;;;;;;;;;;;3.10;99.90;;;;;;7332629;19;110473;-91
2024/01/14 05:58:53;;;;;;;;;;;3.10;99.90;;;;;;7334174;19;109331;-91
2024/01/14 06:01:21;;;;;;;;;;;3.20;99.90;;;;;;7334795;19;110593;-92
2024/01/14 06:03:48;;;;;;;;;;;3.20;99.90;;;;;;7334822;19;108655;-92
2024/01/14 06:06:15;;;;;;;;;;;3.20;99.90;;;;;;7332806;19;109516;-91
2024/01/14 06:08:43;;;;;;;;;;;3.20;99.90;;;;;;7335696;19;109978;-90
2024/01/14 06:11:10;;;;;;;;;;;3.10;99.90;;;;;;7336344;19;110396;-91
2024/01/14 06:13:38;;;;;;;;;;;3.10;99.90;;;;;;7340764;19;109990;-91
2024/01/14 06:16:05;;;;;;;;;;;3.10;99.90;;;;;;7335044;19;108597;-90
2024/01/14 06:18:32;;;;;;;;;;;3.10;99.90;;;;;;7334475;19;109253;-92
2024/01/14 06:21:00;;;;;;;;;;;3.10;99.90;;;;;;7335673;19;112756;-91
2024/01/14 06:23:28;;;;;;;;;;;3.10;99.90;;;;;;7334165;19;108555;-91
2024/01/14 06:26:01;;;;;;;;;;;3.10;99.90;;;;;;7332853;19;109201;-91
2024/01/14 06:28:28;;;;;;;;;;;3.10;99.90;;;;;;7335678;19;109089;-91
2024/01/14 06:30:55;;;;;;;;;;;3.10;99.90;;;;;;7335760;19;108631;-90
2024/01/14 06:33:23;;;;;;;;;;;3.10;99.90;;;;;;7332428;19;111459;-91
2024/01/14 06:35:50;;;;;;;;;;;3.10;99.90;;;;;;7337848;19;112730;-92
2024/01/14 06:38:17;;;;;;;;;;;3.10;99.90;;;;;;7329147;19;109717;-95
2024/01/14 06:40:44;;;;;;;;;;;3.10;99.90;;;;;;7333783;19;109925;-90
2024/01/14 06:43:27;;;;;;;;;;;3.10;99.90;;;;;;7327199;19;109101;-89
2024/01/14 06:45:55;;;;;;;;;;;3.10;99.90;;;;;;7330287;19;109276;-89
2024/01/14 06:48:22;;;;;;;;;;;3.00;99.90;;;;;;7330026;19;113332;-89
2024/01/14 06:50:49;;;;;;;;;;;3.10;99.90;;;;;;7329301;19;109889;-89
2024/01/14 06:53:16;;;;;;;;;;;3.00;99.90;;;;;;7331303;19;109163;-88
2024/01/14 06:55:44;;;;;;;;;;;3.10;99.90;;;;;;7327346;19;113350;-88
2024/01/14 06:58:11;;;;;;;;;;;3.00;99.90;;;;;;7334220;19;108639;-88
2024/01/14 07:00:38;;;;;;;;;;;3.00;99.90;;;;;;7331009;19;110430;-91
2024/01/14 07:03:05;;;;;;;;;;;3.00;99.90;;;;;;7330129;19;108689;-90
2024/01/14 07:05:33;;;;;;;;;;;3.00;99.90;;;;;;7334568;19;108788;-90
2024/01/14 07:08:00;;;;;;;;;;;3.00;99.90;;;;;;7330629;19;110037;-91
2024/01/14 07:10:27;;;;;;;;;;;3.00;99.90;;;;;;7335047;19;108775;-90
2024/01/14 07:12:54;;;;;;;;;;;3.10;99.90;;;;;;7332464;19;108641;-91
2024/01/14 07:15:21;;;;;;;;;;;3.00;99.90;;;;;;7330204;19;110150;-91
2024/01/14 07:17:50;;;;;;;;;;;3.10;99.90;;;;;;7333568;19;109209;-91
2024/01/14 07:20:25;;;;;;;;;;;3.10;99.90;;;;;;7339535;19;109082;-91
2024/01/14 07:22:52;;;;;;;;;;;3.10;99.90;;;;;;7329259;19;108642;-90
2024/01/14 07:25:19;;;;;;;;;;;3.10;99.90;;;;;;7332846;19;108812;-90
2024/01/14 07:27:47;;;;;;;;;;;3.10;99.90;;;;;;7331543;19;111470;-91
2024/01/14 07:30:17;;;;;;;;;;;3.10;99.90;;;;;;7332519;19;108566;-90
2024/01/14 07:32:45;;;;;;;;;;;3.10;99.90;;;;;;7334991;19;109422;-90
2024/01/14 07:35:13;;;;;;;;;;;3.00;99.90;;;;;;7328418;19;110324;-90
2024/01/14 07:37:40;;;;;;;;;;;3.00;99.90;;;;;;7332074;19;112306;-91
2024/01/14 07:40:07;;;;;;;;;;;3.10;99.90;;;;;;7335909;19;110321;-90
2024/01/14 07:42:34;;;;;;;;;;;3.10;99.90;;;;;;7333718;19;109205;-90
2024/01/14 07:45:02;;;;;;;;;;;3.10;99.90;;;;;;7329089;19;110202;-90
2024/01/14 07:47:30;;;;;;;;;;;3.00;99.90;;;;;;7332181;19;110234;-91
2024/01/14 07:49:57;;;;;;;;;;;3.10;99.90;;;;;;7332311;19;109230;-91
2024/01/14 07:52:25;;;;;;;;;;;3.00;99.90;;;;;;7334598;19;109542;-91
2024/01/14 07:54:52;;;;;;;;;;;3.00;99.90;;;;;;7330256;19;112372;-91
2024/01/14 07:57:19;;;;;;;;;;;3.00;99.90;;;;;;7332586;19;108543;-90
2024/01/14 07:59:46;;;;;;;;;;;3.00;99.90;;;;;;7333372;19;108787;-91
2024/01/14 08:02:14;;;;;;;;;;;3.00;99.90;;;;;;7330677;19;111452;-91
2024/01/14 08:04:41;;;;;;;;;;;3.00;99.90;;;;;;7331275;19;108756;-91
2024/01/14 08:07:08;;;;;;;;;;;3.00;99.90;;;;;;7337639;19;110714;-91
2024/01/14 08:09:35;;;;;;;;;;;3.00;99.90;;;;;;7341109;19;108942;-92
2024/01/14 08:12:03;;;;;;;;;;;3.10;99.90;;;;;;7339382;19;109225;-92
2024/01/14 08:14:30;;;;;;;;;;;3.00;99.90;;;;;;7338788;19;111866;-90
2024/01/14 08:16:57;;;;;;;;;;;3.10;99.90;;;;;;7345848;19;110318;-91
2024/01/14 08:19:26;;;;;;;;;;;3.10;99.90;;;;;;7343126;19;111611;-95
2024/01/14 08:21:53;;;;;;;;;;;3.10;99.90;;;;;;7361285;19;110652;-96
2024/01/14 08:24:23;;;;;;;;;;;3.10;99.90;;;;;;7349765;19;108202;-95
2024/01/14 08:27:02;;;;;;;;;;;3.10;99.90;;;;;;7331136;19;113818;-69
2024/01/14 08:29:29;;;;;;;;;;;3.10;99.90;;;;;;7334261;19;108580;-69
2024/01/14 08:31:57;;;;;;;;;;;3.10;99.90;;;;;;7332599;19;111264;-69
2024/01/14 08:34:24;;;;;;;;;;;3.10;99.90;;;;;;7334627;19;109697;-68
2024/01/14 08:36:51;;;;;;;;;;;3.10;99.90;;;;;;7336860;19;108785;-70
2024/01/14 08:39:18;;;;;;;;;;;3.10;99.90;;;;;;7336040;19;111675;-69
2024/01/14 08:41:45;;;;;;;;;;;3.10;99.90;;;;;;7334333;19;110490;-68
2024/01/14 08:44:14;;;;;;;;;;;3.20;99.90;;;;;;7333260;19;109117;-70
2024/01/14 08:46:41;;;;;;;;;;;3.20;99.90;;;;;;7338400;19;109633;-72
2024/01/14 08:49:08;;;;;;;;;;;3.20;99.90;;;;;;7332246;19;109767;-70
2024/01/14 08:51:38;;;;;;;;;;;3.20;99.90;;;;;;7334928;19;109623;-70
2024/01/14 08:54:05;;;;;;;;;;;3.20;99.90;;;;;;7337572;19;110191;-69
2024/01/14 08:56:32;;;;;;;;;;;3.20;99.90;;;;;;7337153;19;110211;-69
2024/01/14 08:58:59;;;;;;;;;;;3.20;99.90;;;;;;7334843;19;109016;-69
2024/01/14 09:01:27;;;;;;;;;;;3.20;99.90;;;;;;7336685;19;110436;-69
2024/01/14 09:03:55;;;;;;;;;;;3.20;99.90;;;;;;7333476;19;108620;-69
2024/01/14 09:06:22;;;;;;;;;;;3.20;99.90;;;;;;7329454;19;114468;-69
2024/01/14 09:08:49;;;;;;;;;;;3.20;99.90;;;;;;7336576;19;109280;-68
2024/01/14 09:11:17;;;;;;;;;;;3.20;99.90;;;;;;7336113;19;109134;-69
2024/01/14 09:13:45;;;;;;;;;;;3.20;99.90;;;;;;7331901;19;109057;-69
2024/01/14 09:16:12;;;;;;;;;;;3.20;99.90;;;;;;7332291;19;108845;-69
2024/01/14 09:18:39;;;;;;;;;;;3.20;99.90;;;;;;7332856;19;110481;-69
2024/01/14 09:21:07;;;;;;;;;;;3.20;99.90;;;;;;7331695;19;108586;-69
2024/01/14 09:23:34;;;;;;;;;;;3.20;99.90;;;;;;7334359;19;109288;-68
2024/01/14 09:26:01;;;;;;;;;;;3.20;99.90;;;;;;7333004;19;108417;-68
2024/01/14 09:28:29;;;;;;;;;;;3.20;99.90;;;;;;7334053;19;109094;-69
2024/01/14 09:30:56;;;;;;;;;;;3.20;99.90;;;;;;7342283;19;109177;-68
2024/01/14 09:33:24;;;;;;;;;;;3.20;99.90;;;;;;7331790;19;112313;-69
2024/01/14 09:35:51;;;;;;;;;;;3.30;99.90;;;;;;7335164;19;110032;-68
2024/01/14 09:38:18;;;;;;;;;;;3.30;99.90;;;;;;7331426;19;108622;-69
2024/01/14 09:40:48;;;;;;;;;;;3.30;99.90;;;;;;7333184;19;109619;-69
2024/01/14 09:43:15;;;;;;;;;;;3.30;99.90;;;;;;7335574;19;108807;-68
2024/01/14 09:45:44;;;;;;;;;;;3.30;99.90;;;;;;7329118;19;108812;-69
2024/01/14 09:48:15;;;;;;;;;;;3.30;99.90;;;;;;7331577;19;109164;-70
2024/01/14 09:50:43;;;;;;;;;;;3.30;99.90;;;;;;7337765;19;111282;-69
2024/01/14 09:53:14;;;;;;;;;;;3.30;99.90;;;;;;7332067;19;110052;-69
2024/01/14 09:55:41;;;;;;;;;;;3.30;99.90;;;;;;7329330;19;109803;-69
2024/01/14 09:58:12;;;;;;;;;;;3.30;99.90;;;;;;7330700;19;111120;-79
2024/01/14 10:00:40;;;;;;;;;;;3.30;99.90;;;;;;7322751;19;111275;-75
2024/01/14 10:03:08;;;;;;;;;;;3.30;99.90;;;;;;7332203;19;108787;-76
2024/01/14 10:05:36;;;;;;;;;;;3.30;99.90;;;;;;7330690;19;109622;-73
2024/01/14 10:08:04;;;;;;;;;;;3.40;99.90;;;;;;7329393;19;109912;-70
2024/01/14 10:10:33;;;;;;;;;;;3.30;99.90;;;;;;7327086;19;110938;-69
2024/01/14 10:13:02;;;;;;;;;;;3.30;99.90;;;;;;7342078;19;110159;-69
2024/01/14 10:15:35;;;;;;;;;;;3.30;99.90;;;;;;7335813;19;108756;-70
2024/01/14 10:18:17;;;;;;;;;;;3.30;99.90;;;;;;7335154;19;108599;-69
2024/01/14 10:20:45;;;;;;;;;;;3.40;99.90;;;;;;7333475;19;109162;-69
2024/01/14 10:23:12;;;;;;;;;;;3.40;99.90;;;;;;7331639;19;109093;-69
2024/01/14 10:25:39;;;;;;;;;;;3.40;99.90;;;;;;7334016;19;109287;-68
2024/01/14 10:28:07;;;;;;;;;;;3.40;99.90;;;;;;7330012;19;109306;-69
2024/01/14 10:30:34;;;;;;;;;;;3.40;99.90;;;;;;7329511;19;109993;-74
2024/01/14 10:33:03;;;;;;;;;;;3.40;99.90;;;;;;7333487;19;109418;-71
2024/01/14 10:35:48;;;;;;;;;;;3.40;99.90;;;;;;7335411;19;111031;-74
2024/01/14 10:38:16;;;;;;;;;;;3.40;99.90;;;;;;7332469;19;109909;-74
2024/01/14 10:40:44;;;;;;;;;;;3.40;99.90;;;;;;7332001;19;109670;-70
2024/01/14 10:43:11;;;;;;;;;;;3.50;99.90;;;;;;7333669;19;109537;-69
2024/01/14 10:45:38;;;;;;;;;;;3.50;99.90;;;;;;7330922;19;108793;-68
2024/01/14 10:48:10;;;;;;;;;;;3.50;99.90;;;;;;7330251;19;109793;-69
2024/01/14 10:50:38;;;;;;;;;;;3.50;99.90;;;;;;7332956;19;108822;-69
2024/01/14 10:53:30;;;;;;;;;;;3.60;99.90;;;;;;7331175;19;109387;-70
2024/01/14 10:56:05;;;;;;;;;;;3.60;99.90;;;;;;7331520;19;110380;-68
2024/01/14 10:58:36;;;;;;;;;;;3.60;99.90;;;;;;7337035;19;109520;-69
2024/01/14 11:01:06;;;;;;;;;;;3.60;99.90;;;;;;7331619;19;112675;-68
2024/01/14 11:03:34;;;;;;;;;;;3.60;99.90;;;;;;7330572;19;109822;-69
2024/01/14 11:06:02;;;;;;;;;;;3.60;99.90;;;;;;7331703;19;108850;-70
2024/01/14 11:08:30;;;;;;;;;;;3.60;99.90;;;;;;7328113;19;111013;-69
2024/01/14 11:10:57;;;;;;;;;;;3.60;99.90;;;;;;7330226;19;109149;-69
2024/01/14 11:13:36;;;;;;;;;;;3.60;99.90;;;;;;7328852;19;108573;-71
2024/01/14 11:16:07;;;;;;;;;;;3.60;99.90;;;;;;7329308;19;110038;-69
2024/01/14 11:18:38;;;;;;;;;;;3.60;99.90;;;;;;7330653;19;109615;-68
2024/01/14 11:21:26;;;;;;;;;;;3.60;99.90;;;;;;7332431;19;108963;-68
2024/01/14 11:24:13;;;;;;;;;;;3.70;99.90;;;;;;7327556;19;108592;-69
2024/01/14 11:26:41;;;;;;;;;;;3.70;99.90;;;;;;7332067;19;112364;-68
2024/01/14 11:29:08;;;;;;;;;;;3.70;99.90;;;;;;7329766;19;110047;-68
2024/01/14 11:31:54;;;;;;;;;;;3.70;99.90;;;;;;7330617;19;108620;-68
2024/01/14 11:34:39;;;;;;;;;;;3.70;99.90;;;;;;7332702;19;109107;-68
2024/01/14 11:37:07;;;;;;;;;;;3.70;99.90;;;;;;7328749;19;109860;-68
2024/01/14 11:39:34;;;;;;;;;;;3.80;99.90;;;;;;7332738;19;108517;-68
2024/01/14 11:42:05;;;;;;;;;;;3.80;99.90;;;;;;7347936;19;109164;-69
2024/01/14 11:44:32;;;;;;;;;;;3.80;99.90;;;;;;7345763;19;110547;-68
2024/01/14 11:47:00;;;;;;;;;;;3.80;99.90;;;;;;7343765;19;108682;-69
2024/01/14 11:49:31;;;;;;;;;;;3.80;99.90;;;;;;7344095;19;109565;-69
2024/01/14 11:52:02;;;;;;;;;;;3.80;99.90;;;;;;7346051;19;108924;-69
2024/01/14 11:54:31;;;;;;;;;;;3.80;99.90;;;;;;7347307;19;109204;-70
2024/01/14 11:57:01;;;;;;;;;;;3.80;99.90;;;;;;7345174;19;110023;-68
2024/01/14 11:59:29;;;;;;;;;;;3.80;99.90;;;;;;7343500;19;111219;-68
2024/01/14 12:02:15;;;;;;;;;;;3.90;99.90;;;;;;7342927;19;109228;-76
2024/01/14 12:04:42;;;;;;;;;;;3.90;99.90;;;;;;7348960;19;109449;-73
2024/01/14 12:07:21;;;;;;;;;;;3.90;99.90;;;;;;7343353;19;108889;-75
2024/01/14 12:12:26;;;;;;;;;;;3.90;99.90;;;;;;7344625;19;108926;-70
2024/01/14 12:14:54;;;;;;;;;;;3.90;99.90;;;;;;7340353;19;110263;-68
2024/01/14 12:17:21;;;;;;;;;;;3.90;99.90;;;;;;7343546;19;111424;-69
2024/01/14 12:19:55;;;;;;;;;;;3.90;99.90;;;;;;7342456;19;108678;-67
2024/01/14 12:22:22;;;;;;;;;;;3.90;99.90;;;;;;7345754;19;108842;-67
2024/01/14 12:24:50;;;;;;;;;;;3.90;99.90;;;;;;7342257;19;109182;-68
2024/01/14 12:27:17;;;;;;;;;;;3.90;99.90;;;;;;7351039;19;109037;-67
2024/01/14 12:29:44;;;;;;;;;;;3.90;99.90;;;;;;7340577;19;111072;-68
2024/01/14 12:32:11;;;;;;;;;;;3.90;99.90;;;;;;7343172;19;108423;-67
2024/01/14 12:34:40;;;;;;;;;;;3.90;99.90;;;;;;7344794;19;109084;-68
2024/01/14 12:37:08;;;;;;;;;;;3.90;99.90;;;;;;7342481;19;110301;-68
2024/01/14 12:39:39;;;;;;;;;;;3.90;99.90;;;;;;7342089;19;110650;-68
2024/01/14 12:42:07;;;;;;;;;;;3.90;99.90;;;;;;7343526;19;108837;-67
2024/01/14 12:44:43;;;;;;;;;;;3.80;99.90;;;;;;7343328;19;109552;-67
2024/01/14 12:47:11;;;;;;;;;;;3.90;99.90;;;;;;7344727;19;110439;-67
2024/01/14 12:49:38;;;;;;;;;;;3.80;99.90;;;;;;7346956;19;108798;-67
2024/01/14 12:52:06;;;;;;;;;;;3.80;99.90;;;;;;7335846;19;110915;-67
2024/01/14 12:54:34;;;;;;;;;;;3.90;99.90;;;;;;7336315;19;108811;-67
2024/01/14 12:57:02;;;;;;;;;;;3.90;99.90;;;;;;7336507;19;110175;-67
2024/01/14 12:59:30;;;;;;;;;;;3.90;99.90;;;;;;7336885;19;109022;-67
2024/01/14 13:01:57;;;;;;;;;;;3.80;99.90;;;;;;7332991;19;109071;-67
2024/01/14 13:04:28;;;;;;;;;;;3.80;99.90;;;;;;7336566;19;111065;-69
2024/01/14 13:06:55;;;;;;;;;;;3.80;99.90;;;;;;7333082;19;110355;-67
2024/01/14 13:09:26;;;;;;;;;;;3.80;99.90;;;;;;7328810;19;112465;-67
2024/01/14 13:11:53;;;;;;;;;;;3.70;99.90;;;;;;7328870;19;110460;-68
2024/01/14 13:14:20;;;;;;;;;;;3.70;99.90;;;;;;7324402;19;110181;-67
2024/01/14 13:16:47;;;;;;;;;;;3.70;99.90;;;;;;7336209;19;109771;-68
2024/01/14 13:19:20;;;;;;;;;;;3.70;99.90;;;;;;7336178;19;110439;-74
2024/01/14 13:21:48;;;;;;;;;;;3.70;99.90;;;;;;7335337;19;109373;-73
2024/01/14 13:24:16;;;;;;;;;;;3.70;99.90;;;;;;7334690;19;110366;-74
2024/01/14 13:26:43;;;;;;;;;;;3.60;99.90;;;;;;7338566;19;109070;-74
2024/01/14 13:29:10;;;;;;;;;;;3.70;99.90;;;;;;7335368;19;110940;-72
2024/01/14 13:31:39;;;;;;;;;;;3.60;99.90;;;;;;7334065;19;108626;-74
2024/01/14 13:34:07;;;;;;;;;;;3.60;99.90;;;;;;7339830;19;108910;-68
2024/01/14 13:36:35;;;;;;;;;;;3.60;99.90;;;;;;7334580;19;110658;-69
2024/01/14 13:39:04;;;;;;;;;;;3.60;99.90;;;;;;7335116;19;109123;-71
2024/01/14 13:41:32;;;;;;;;;;;3.60;99.90;;;;;;7332887;19;110084;-78
2024/01/14 13:44:00;;;;;;;;;;;3.60;99.90;;;;;;7336795;19;109525;-71
2024/01/14 13:46:31;;;;;;;;;;;3.60;99.90;;;;;;7332769;19;108442;-68
2024/01/14 13:48:58;;;;;;;;;;;3.60;99.90;;;;;;7333257;19;109426;-68
2024/01/14 13:51:25;;;;;;;;;;;3.60;99.90;;;;;;7330989;19;109896;-68
2024/01/14 13:53:53;;;;;;;;;;;3.60;99.90;;;;;;7339495;19;108978;-68
2024/01/14 13:56:39;;;;;;;;;;;3.60;99.90;;;;;;7333828;19;112158;-70
2024/01/14 13:59:08;;;;;;;;;;;3.50;99.90;;;;;;7335670;19;108396;-69
2024/01/14 14:01:37;;;;;;;;;;;3.50;99.90;;;;;;7332627;19;110076;-70
2024/01/14 14:04:07;;;;;;;;;;;3.50;99.90;;;;;;7332898;19;112257;-68
2024/01/14 14:06:35;;;;;;;;;;;3.50;99.90;;;;;;7329011;19;110694;-69
2024/01/14 14:09:06;;;;;;;;;;;3.50;99.90;;;;;;7332216;19;108907;-68
2024/01/14 14:11:34;;;;;;;;;;;3.50;99.90;;;;;;7330479;19;111120;-67
2024/01/14 14:14:02;;;;;;;;;;;3.50;99.90;;;;;;7333303;19;108996;-67
2024/01/14 14:16:29;;;;;;;;;;;3.40;99.90;;;;;;7335444;19;108714;-67
2024/01/14 14:19:08;;;;;;;;;;;3.40;99.90;;;;;;7332222;19;109286;-68
2024/01/14 14:21:36;;;;;;;;;;;3.50;99.90;;;;;;7326414;19;111136;-68
2024/01/14 14:24:07;;;;;;;;;;;3.50;99.90;;;;;;7329326;19;109460;-67
2024/01/14 14:26:34;;;;;;;;;;;3.50;99.90;;;;;;7333840;19;108318;-68